createdAt,value
2019-01-24T00:00:40.852Z,65.72
2019-01-24T00:03:08.083Z,65.27
2019-01-24T00:05:35.354Z,64.92
2019-01-24T00:08:02.703Z,65.25
2019-01-24T00:10:30.052Z,65.04
2019-01-24T00:12:57.332Z,65.10
2019-01-24T00:15:24.596Z,65.07
2019-01-24T00:17:51.810Z,65.05
2019-01-24T00:20:19.165Z,65.11
2019-01-24T00:22:46.380Z,65.24
2019-01-24T00:25:13.593Z,64.16
2019-01-24T00:27:40.850Z,64.96
2019-01-24T00:30:09.029Z,64.83
2019-01-24T00:32:36.297Z,65.08
2019-01-24T00:35:04.149Z,64.80
2019-01-24T00:37:31.374Z,64.71
2019-01-24T00:39:58.596Z,64.98
2019-01-24T00:42:25.798Z,64.88
2019-01-24T00:44:53.071Z,64.68
2019-01-24T00:47:20.271Z,63.93
2019-01-24T00:49:47.491Z,64.43
2019-01-24T00:52:14.779Z,64.50
2019-01-24T00:54:42.018Z,66.42
2019-01-24T00:57:09.219Z,65.86
2019-01-24T00:59:36.783Z,65.64
2019-01-24T01:02:04.072Z,65.35
2019-01-24T01:04:31.483Z,65.50
2019-01-24T01:06:58.790Z,66.36
2019-01-24T01:09:25.984Z,66.68
2019-01-24T01:11:53.195Z,65.78
2019-01-24T01:14:20.424Z,67.14
2019-01-24T01:16:47.745Z,66.31
2019-01-24T01:19:14.940Z,66.10
2019-01-24T01:21:42.175Z,65.69
2019-01-24T01:24:09.557Z,66.46
2019-01-24T01:26:36.811Z,66.02
2019-01-24T01:29:04.370Z,65.55
2019-01-24T01:31:31.589Z,65.71
2019-01-24T01:33:58.911Z,65.65
2019-01-24T01:36:26.174Z,66.98
2019-01-24T01:38:53.408Z,67.23
2019-01-24T01:41:20.684Z,68.30
2019-01-24T01:43:47.927Z,68.70
2019-01-24T01:46:15.130Z,68.87
2019-01-24T01:48:42.455Z,68.38
2019-01-24T01:51:09.697Z,68.66
2019-01-24T01:53:36.926Z,69.34
2019-01-24T01:56:04.196Z,70.46
2019-01-24T01:58:31.415Z,70.83
2019-01-24T02:00:58.654Z,70.38
2019-01-24T02:03:25.868Z,69.49
2019-01-24T02:05:53.113Z,68.94
2019-01-24T02:08:20.383Z,68.72
2019-01-24T02:10:47.669Z,68.60
2019-01-24T02:13:14.890Z,69.73
2019-01-24T02:15:42.102Z,69.80
2019-01-24T02:18:09.563Z,69.51
2019-01-24T02:20:36.771Z,70.16
2019-01-24T02:23:04.400Z,70.56
2019-01-24T02:25:31.766Z,71.47
2019-01-24T02:27:58.994Z,71.32
2019-01-24T02:30:27.871Z,70.29
2019-01-24T02:32:55.598Z,70.19
2019-01-24T02:35:22.808Z,70.49
2019-01-24T02:37:50.133Z,69.60
2019-01-24T02:40:17.413Z,69.44
2019-01-24T02:42:44.734Z,69.10
2019-01-24T02:45:13.363Z,68.90
2019-01-24T02:47:40.603Z,68.19
2019-01-24T02:50:10.114Z,68.89
2019-01-24T02:52:37.358Z,68.50
2019-01-24T02:55:06.380Z,68.30
2019-01-24T02:57:33.628Z,67.21
2019-01-24T03:00:00.862Z,67.76
2019-01-24T03:02:28.107Z,67.64
2019-01-24T03:04:57.046Z,66.99
2019-01-24T03:07:24.504Z,67.21
2019-01-24T03:09:51.732Z,68.14
2019-01-24T03:12:19.019Z,68.27
2019-01-24T03:14:46.455Z,68.59
2019-01-24T03:17:13.675Z,69.50
2019-01-24T03:19:40.926Z,69.64
2019-01-24T03:22:08.150Z,68.96
2019-01-24T03:24:38.340Z,69.62
2019-01-24T03:27:05.879Z,69.03
2019-01-24T03:29:33.143Z,70.03
2019-01-24T03:32:00.377Z,69.16
2019-01-24T03:34:27.635Z,68.73
2019-01-24T03:36:54.852Z,68.39
2019-01-24T03:39:22.109Z,68.31
2019-01-24T03:41:49.401Z,68.19
2019-01-24T03:44:16.764Z,68.04
2019-01-24T03:46:44.019Z,67.59
2019-01-24T03:49:11.406Z,67.53
2019-01-24T03:51:38.697Z,67.64
2019-01-24T03:54:05.934Z,67.57
2019-01-24T03:56:33.373Z,67.45
2019-01-24T03:59:00.584Z,67.42
2019-01-24T04:01:27.813Z,66.10
2019-01-24T04:03:55.182Z,67.37
2019-01-24T04:06:22.428Z,67.27
2019-01-24T04:08:49.635Z,67.21
2019-01-24T04:11:16.892Z,66.98
2019-01-24T04:13:44.161Z,67.02
2019-01-24T04:16:11.380Z,66.86
2019-01-24T04:18:38.615Z,66.63
2019-01-24T04:21:05.848Z,66.63
2019-01-24T04:23:33.078Z,66.45
2019-01-24T04:26:00.431Z,66.09
2019-01-24T04:28:27.680Z,65.96
2019-01-24T04:30:55.134Z,66.20
2019-01-24T04:33:22.360Z,66.15
2019-01-24T04:35:49.811Z,66.17
2019-01-24T04:38:17.011Z,65.97
2019-01-24T04:40:44.219Z,65.97
2019-01-24T04:43:11.461Z,66.07
2019-01-24T04:45:38.717Z,66.01
2019-01-24T04:48:05.997Z,66.83
2019-01-24T04:50:33.195Z,66.52
2019-01-24T04:53:00.451Z,65.81
2019-01-24T04:55:27.711Z,66.19
2019-01-24T04:57:55.199Z,66.99
2019-01-24T05:00:30.161Z,66.55
2019-01-24T05:02:57.487Z,66.94
2019-01-24T05:05:28.035Z,66.76
2019-01-24T05:07:54.426Z,66.54
2019-01-24T05:10:21.818Z,66.38
2019-01-24T05:12:49.055Z,66.37
2019-01-24T05:15:16.604Z,66.35
2019-01-24T05:17:43.884Z,66.27
2019-01-24T05:20:11.932Z,66.10
2019-01-24T05:22:39.151Z,66.09
2019-01-24T05:25:08.591Z,65.92
2019-01-24T05:27:35.804Z,65.79
2019-01-24T05:30:04.615Z,65.96
2019-01-24T05:32:31.866Z,66.06
2019-01-24T05:34:59.099Z,66.00
2019-01-24T05:37:26.346Z,65.97
2019-01-24T05:39:53.562Z,65.94
2019-01-24T05:42:20.880Z,65.87
2019-01-24T05:44:48.115Z,65.86
2019-01-24T05:47:15.330Z,65.84
2019-01-24T05:49:42.555Z,65.80
2019-01-24T05:52:09.843Z,65.72
2019-01-24T05:54:37.091Z,65.60
2019-01-24T05:57:04.338Z,65.54
2019-01-24T05:59:31.555Z,65.49
2019-01-24T06:01:59.400Z,65.25
2019-01-24T06:04:26.627Z,65.04
2019-01-24T06:06:53.844Z,64.32
2019-01-24T06:09:21.102Z,64.69
2019-01-24T06:11:48.569Z,65.00
2019-01-24T06:14:15.771Z,64.99
2019-01-24T06:16:43.194Z,64.93
2019-01-24T06:19:10.398Z,64.88
2019-01-24T06:21:37.603Z,64.95
2019-01-24T06:24:04.864Z,65.06
2019-01-24T06:26:32.122Z,65.13
2019-01-24T06:28:59.332Z,65.18
2019-01-24T06:31:26.612Z,65.23
2019-01-24T06:33:53.961Z,65.23
2019-01-24T06:36:21.168Z,65.36
2019-01-24T06:38:48.519Z,65.39
2019-01-24T06:41:15.750Z,65.36
2019-01-24T06:43:42.955Z,65.40
2019-01-24T06:46:10.194Z,65.39
2019-01-24T06:48:37.728Z,65.21
2019-01-24T06:51:04.940Z,65.25
2019-01-24T06:53:32.228Z,65.38
2019-01-24T06:55:59.481Z,65.31
2019-01-24T06:58:26.692Z,65.27
2019-01-24T07:00:53.909Z,65.14
2019-01-24T07:03:21.158Z,65.37
2019-01-24T07:05:48.630Z,65.33
2019-01-24T07:08:15.838Z,65.68
2019-01-24T07:10:43.065Z,65.58
2019-01-24T07:13:10.610Z,65.26
2019-01-24T07:15:38.727Z,65.43
2019-01-24T07:18:06.125Z,65.73
2019-01-24T07:20:33.327Z,65.59
2019-01-24T07:23:00.717Z,65.43
2019-01-24T07:25:28.335Z,65.53
2019-01-24T07:27:55.952Z,66.00
2019-01-24T07:30:23.192Z,65.84
2019-01-24T07:32:50.528Z,65.74
2019-01-24T07:35:17.722Z,65.71
2019-01-24T07:37:45.082Z,65.59
2019-01-24T07:40:13.935Z,65.10
2019-01-24T07:42:41.168Z,65.55
2019-01-24T07:45:13.259Z,65.49
2019-01-24T07:47:40.494Z,65.38
2019-01-24T07:50:09.203Z,65.40
2019-01-24T07:52:36.502Z,65.34
2019-01-24T07:55:04.018Z,65.30
2019-01-24T07:57:31.258Z,65.17
2019-01-24T07:59:58.512Z,65.28
2019-01-24T08:02:25.740Z,65.68
2019-01-24T08:04:52.936Z,65.60
2019-01-24T08:07:20.199Z,65.54
2019-01-24T08:09:50.334Z,65.47
2019-01-24T08:12:17.632Z,65.38
2019-01-24T08:14:46.503Z,65.31
2019-01-24T08:17:13.846Z,65.74
2019-01-24T08:19:41.080Z,65.71
2019-01-24T08:22:08.417Z,64.72
2019-01-24T08:24:35.671Z,65.62
2019-01-24T08:27:02.921Z,65.94
2019-01-24T08:29:30.154Z,66.28
2019-01-24T08:31:57.368Z,66.05
2019-01-24T08:34:24.615Z,66.04
2019-01-24T08:36:51.832Z,65.62
2019-01-24T08:39:21.982Z,65.63
2019-01-24T08:41:49.215Z,65.64
2019-01-24T08:44:16.472Z,65.37
2019-01-24T08:46:43.695Z,65.98
2019-01-24T08:49:10.964Z,65.50
2019-01-24T08:51:38.186Z,65.43
2019-01-24T08:54:05.450Z,65.57
2019-01-24T08:56:32.704Z,65.66
2019-01-24T08:58:59.907Z,65.65
2019-01-24T09:01:27.397Z,65.58
2019-01-24T09:03:54.654Z,65.55
2019-01-24T09:06:22.690Z,65.39
2019-01-24T09:08:51.749Z,65.36
2019-01-24T09:11:19.018Z,65.28
2019-01-24T09:13:46.196Z,65.26
2019-01-24T09:16:13.490Z,63.80
2019-01-24T09:18:40.725Z,64.99
2019-01-24T09:21:07.956Z,64.76
2019-01-24T09:23:35.170Z,64.72
2019-01-24T09:26:02.631Z,64.62
2019-01-24T09:28:29.865Z,64.58
2019-01-24T09:30:57.088Z,63.73
2019-01-24T09:33:24.324Z,64.39
2019-01-24T09:35:51.584Z,64.28
2019-01-24T09:38:18.810Z,64.12
2019-01-24T09:40:46.117Z,63.54
2019-01-24T09:43:13.351Z,64.13
2019-01-24T09:45:40.540Z,64.06
2019-01-24T09:48:08.134Z,63.85
2019-01-24T09:50:35.455Z,63.72
2019-01-24T09:53:02.896Z,63.87
2019-01-24T09:55:30.118Z,63.64
2019-01-24T09:57:57.344Z,63.69
2019-01-24T10:00:32.206Z,61.62
2019-01-24T10:02:59.721Z,63.17
2019-01-24T10:05:27.195Z,62.45
2019-01-24T10:07:54.608Z,62.34
2019-01-24T10:10:22.502Z,62.20
2019-01-24T10:12:50.461Z,62.33
2019-01-24T10:15:18.344Z,62.11
2019-01-24T10:17:45.591Z,62.06
2019-01-24T10:20:14.483Z,61.91
2019-01-24T10:22:41.823Z,61.90
2019-01-24T10:25:12.246Z,61.86
2019-01-24T10:27:39.570Z,61.96
2019-01-24T10:30:08.575Z,61.70
2019-01-24T10:32:35.937Z,61.41
2019-01-24T10:35:03.612Z,61.17
2019-01-24T10:37:32.800Z,61.26
2019-01-24T10:40:00.349Z,61.38
2019-01-24T10:42:27.750Z,61.39
2019-01-24T10:44:55.005Z,61.25
2019-01-24T10:47:22.224Z,60.96
2019-01-24T10:49:49.485Z,60.64
2019-01-24T10:52:16.678Z,60.41
2019-01-24T10:54:43.937Z,60.22
2019-01-24T10:57:11.239Z,59.88
2019-01-24T10:59:38.479Z,59.38
2019-01-24T11:02:05.699Z,59.66
2019-01-24T11:04:32.947Z,59.96
2019-01-24T11:07:00.155Z,58.85
2019-01-24T11:09:27.399Z,59.62
2019-01-24T11:11:54.672Z,59.83
2019-01-24T11:14:22.294Z,60.08
2019-01-24T11:16:49.482Z,60.01
2019-01-24T11:19:16.727Z,60.13
2019-01-24T11:21:44.011Z,59.98
2019-01-24T11:24:11.242Z,59.82
2019-01-24T11:26:38.481Z,56.52
2019-01-24T11:29:06.057Z,59.67
2019-01-24T11:31:33.477Z,59.29
2019-01-24T11:34:00.814Z,58.31
2019-01-24T11:36:28.078Z,59.05
2019-01-24T11:38:55.338Z,59.24
2019-01-24T11:41:22.543Z,59.35
2019-01-24T11:43:49.790Z,59.32
2019-01-24T11:46:17.215Z,59.84
2019-01-24T11:48:44.504Z,59.73
2019-01-24T11:51:11.740Z,58.84
2019-01-24T11:53:38.985Z,59.53
2019-01-24T11:56:07.567Z,59.64
2019-01-24T11:58:35.010Z,59.81
2019-01-24T12:01:02.213Z,59.96
2019-01-24T12:03:29.777Z,59.75
2019-01-24T12:05:57.027Z,59.62
2019-01-24T12:08:24.264Z,59.62
2019-01-24T12:10:51.498Z,59.49
2019-01-24T12:13:18.789Z,58.86
2019-01-24T12:15:46.011Z,59.03
2019-01-24T12:18:13.278Z,59.42
2019-01-24T12:20:40.539Z,59.46
2019-01-24T12:23:07.794Z,59.25
2019-01-24T12:25:35.060Z,59.25
2019-01-24T12:28:02.623Z,58.91
2019-01-24T12:30:31.879Z,58.57
2019-01-24T12:32:59.459Z,58.29
2019-01-24T12:35:26.867Z,56.36
2019-01-24T12:37:54.252Z,58.30
2019-01-24T12:40:21.508Z,57.82
2019-01-24T12:42:49.044Z,57.96
2019-01-24T12:45:18.715Z,58.08
2019-01-24T12:47:45.929Z,58.12
2019-01-24T12:50:14.627Z,58.38
2019-01-24T12:52:41.999Z,58.39
2019-01-24T12:55:10.309Z,58.27
2019-01-24T12:57:37.866Z,58.32
2019-01-24T13:00:08.273Z,58.25
2019-01-24T13:02:35.613Z,58.65
2019-01-24T13:05:03.657Z,58.39
2019-01-24T13:07:30.936Z,57.56
2019-01-24T13:09:58.220Z,57.93
2019-01-24T13:12:25.431Z,58.27
2019-01-24T13:14:52.635Z,58.22
2019-01-24T13:17:19.867Z,57.94
2019-01-24T13:19:47.110Z,57.70
2019-01-24T13:22:14.351Z,58.12
2019-01-24T13:24:41.557Z,58.25
2019-01-24T13:27:08.812Z,57.88
2019-01-24T13:29:36.099Z,57.80
2019-01-24T13:32:03.632Z,57.62
2019-01-24T13:34:30.987Z,58.00
2019-01-24T13:36:58.172Z,58.57
2019-01-24T13:39:25.552Z,57.96
2019-01-24T13:41:53.113Z,58.57
2019-01-24T13:44:20.364Z,60.46
2019-01-24T13:46:47.749Z,59.93
2019-01-24T13:49:15.101Z,59.66
2019-01-24T13:51:42.357Z,59.31
2019-01-24T13:54:09.571Z,58.90
2019-01-24T13:56:37.152Z,59.02
2019-01-24T13:59:04.482Z,59.13
2019-01-24T14:01:31.770Z,58.71
2019-01-24T14:04:13.132Z,58.59
2019-01-24T14:06:40.349Z,58.38
2019-01-24T14:09:09.344Z,57.74
2019-01-24T14:11:36.611Z,58.07
2019-01-24T14:14:04.912Z,57.85
2019-01-24T14:16:32.151Z,57.59
2019-01-24T14:18:59.540Z,57.28
2019-01-24T14:21:26.771Z,57.63
2019-01-24T14:23:54.002Z,57.71
2019-01-24T14:26:21.235Z,57.97
2019-01-24T14:28:48.448Z,58.10
2019-01-24T14:31:16.089Z,58.07
2019-01-24T14:33:43.302Z,58.46
2019-01-24T14:36:10.531Z,65.14
2019-01-24T14:38:37.883Z,59.74
2019-01-24T14:41:05.129Z,58.38
2019-01-24T14:43:32.335Z,57.91
2019-01-24T14:45:59.576Z,57.58
2019-01-24T14:48:26.817Z,56.86
2019-01-24T14:50:54.012Z,57.39
2019-01-24T14:53:21.644Z,56.57
2019-01-24T14:55:48.888Z,57.42
2019-01-24T14:58:16.128Z,57.53
2019-01-24T15:00:53.236Z,57.64
2019-01-24T15:03:20.473Z,57.84
2019-01-24T15:05:48.079Z,58.03
2019-01-24T15:08:15.422Z,58.19
2019-01-24T15:10:43.001Z,58.17
2019-01-24T15:13:10.596Z,58.01
2019-01-24T15:15:37.818Z,57.90
2019-01-24T15:18:05.175Z,57.88
2019-01-24T15:20:32.382Z,57.94
2019-01-24T15:22:59.842Z,57.83
2019-01-24T15:25:27.080Z,57.29
2019-01-24T15:27:54.324Z,57.66
2019-01-24T15:30:22.680Z,57.76
2019-01-24T15:32:50.140Z,57.73
2019-01-24T15:35:17.370Z,57.65
2019-01-24T15:37:44.598Z,57.63
2019-01-24T15:40:20.576Z,57.43
2019-01-24T15:42:47.784Z,58.52
2019-01-24T15:45:15.643Z,58.26
2019-01-24T15:47:42.958Z,57.81
2019-01-24T15:50:11.608Z,57.72
2019-01-24T15:52:38.880Z,57.99
2019-01-24T15:55:06.549Z,58.12
2019-01-24T15:57:33.793Z,58.31
2019-01-24T16:00:01.006Z,58.29
2019-01-24T16:02:28.306Z,58.34
2019-01-24T16:04:55.513Z,58.24
2019-01-24T16:07:22.922Z,57.85
2019-01-24T16:09:50.175Z,58.39
2019-01-24T16:12:17.384Z,58.57
2019-01-24T16:14:44.649Z,58.22
2019-01-24T16:17:11.897Z,57.69
2019-01-24T16:19:39.143Z,58.21
2019-01-24T16:22:06.379Z,58.24
2019-01-24T16:24:33.616Z,58.35
2019-01-24T16:27:00.863Z,58.50
2019-01-24T16:29:28.077Z,58.53
2019-01-24T16:31:55.316Z,58.23
2019-01-24T16:34:22.694Z,58.84
2019-01-24T16:36:49.976Z,57.84
2019-01-24T16:39:17.165Z,58.30
2019-01-24T16:41:44.445Z,58.42
2019-01-24T16:44:11.673Z,58.54
2019-01-24T16:46:38.887Z,58.38
2019-01-24T16:49:06.132Z,58.43
2019-01-24T16:51:33.459Z,58.43
2019-01-24T16:54:00.750Z,58.55
2019-01-24T16:56:27.982Z,58.43
2019-01-24T16:58:55.270Z,56.95
2019-01-24T17:01:22.863Z,58.86
2019-01-24T17:03:50.114Z,58.97
2019-01-24T17:06:17.705Z,59.50
2019-01-24T17:08:46.175Z,60.30
2019-01-24T17:11:13.380Z,59.77
2019-01-24T17:13:40.631Z,59.52
2019-01-24T17:16:07.959Z,59.02
2019-01-24T17:18:35.165Z,59.10
2019-01-24T17:21:03.184Z,59.11
2019-01-24T17:23:30.414Z,59.13
2019-01-24T17:25:57.641Z,58.92
2019-01-24T17:28:24.857Z,58.68
2019-01-24T17:30:52.165Z,58.81
2019-01-24T17:33:19.678Z,58.67
2019-01-24T17:35:46.924Z,58.67
2019-01-24T17:38:15.483Z,58.71
2019-01-24T17:40:42.939Z,58.94
2019-01-24T17:43:10.548Z,58.89
2019-01-24T17:45:37.837Z,58.90
2019-01-24T17:48:05.689Z,58.95
2019-01-24T17:50:32.894Z,59.19
2019-01-24T17:53:00.219Z,59.25
2019-01-24T17:55:35.649Z,59.26
2019-01-24T17:58:04.100Z,59.27
2019-01-24T18:00:34.023Z,59.39
2019-01-24T18:03:01.938Z,59.34
2019-01-24T18:05:29.174Z,58.69
2019-01-24T18:07:56.398Z,59.03
2019-01-24T18:10:24.366Z,58.98
2019-01-24T18:12:51.566Z,58.85
2019-01-24T18:15:21.383Z,58.91
2019-01-24T18:17:48.587Z,58.93
2019-01-24T18:20:18.289Z,59.02
2019-01-24T18:22:45.775Z,58.91
2019-01-24T18:25:12.977Z,59.22
2019-01-24T18:27:40.195Z,59.63
2019-01-24T18:30:11.479Z,59.92
2019-01-24T18:32:38.696Z,58.59
2019-01-24T18:35:06.203Z,59.37
2019-01-24T18:37:33.451Z,59.11
2019-01-24T18:40:00.727Z,59.02
2019-01-24T18:42:27.984Z,59.12
2019-01-24T18:44:55.273Z,59.17
2019-01-24T18:47:22.536Z,59.25
2019-01-24T18:49:50.092Z,59.36
2019-01-24T18:52:17.379Z,59.44
2019-01-24T18:54:44.665Z,59.50
2019-01-24T18:57:11.939Z,59.45
2019-01-24T18:59:39.271Z,59.11
2019-01-24T19:02:06.588Z,58.82
2019-01-24T19:04:34.051Z,58.56
2019-01-24T19:07:01.296Z,58.48
2019-01-24T19:09:28.570Z,59.06
2019-01-24T19:11:55.807Z,59.17
2019-01-24T19:14:23.035Z,59.28
2019-01-24T19:16:50.468Z,58.85
2019-01-24T19:19:17.696Z,59.35
2019-01-24T19:21:45.227Z,59.60
2019-01-24T19:24:12.467Z,60.32
2019-01-24T19:26:39.838Z,60.27
2019-01-24T19:29:07.080Z,59.86
2019-01-24T19:31:34.411Z,59.90
2019-01-24T19:34:01.673Z,59.87
2019-01-24T19:36:28.948Z,59.50
2019-01-24T19:38:56.184Z,59.52
2019-01-24T19:41:23.436Z,59.36
2019-01-24T19:43:50.656Z,59.66
2019-01-24T19:46:17.901Z,59.93
2019-01-24T19:48:45.118Z,59.71
2019-01-24T19:51:12.351Z,59.63
2019-01-24T19:53:39.686Z,59.62
2019-01-24T19:56:07.255Z,59.53
2019-01-24T19:58:37.547Z,59.83
2019-01-24T20:01:05.294Z,58.91
2019-01-24T20:03:33.030Z,59.53
2019-01-24T20:06:01.174Z,59.51
2019-01-24T20:08:28.755Z,59.57
2019-01-24T20:10:56.547Z,59.64
2019-01-24T20:13:24.434Z,59.34
2019-01-24T20:15:52.274Z,58.73
2019-01-24T20:18:20.500Z,59.43
2019-01-24T20:20:48.100Z,59.88
2019-01-24T20:23:16.624Z,59.63
2019-01-24T20:25:43.869Z,59.62
2019-01-24T20:28:11.155Z,60.93
2019-01-24T20:30:38.415Z,61.24
2019-01-24T20:33:05.622Z,61.17
2019-01-24T20:35:38.582Z,61.03
2019-01-24T20:38:06.745Z,60.82
2019-01-24T20:40:34.381Z,60.67
2019-01-24T20:43:02.087Z,60.50
2019-01-24T20:45:29.699Z,60.40
2019-01-24T20:47:57.469Z,61.00
2019-01-24T20:50:24.950Z,60.67
2019-01-24T20:52:52.452Z,60.17
2019-01-24T20:55:20.402Z,60.38
2019-01-24T20:57:48.123Z,60.46
2019-01-24T21:00:17.957Z,60.51
2019-01-24T21:02:45.768Z,60.02
2019-01-24T21:05:15.841Z,61.02
2019-01-24T21:07:43.119Z,62.02
2019-01-24T21:10:13.415Z,61.44
2019-01-24T21:12:40.732Z,60.92
2019-01-24T21:15:09.608Z,62.98
2019-01-24T21:17:36.847Z,62.73
2019-01-24T21:20:04.940Z,62.00
2019-01-24T21:22:32.194Z,61.50
2019-01-24T21:24:59.485Z,62.37
2019-01-24T21:27:26.732Z,61.92
2019-01-24T21:29:53.976Z,61.77
2019-01-24T21:32:21.250Z,60.96
2019-01-24T21:34:48.486Z,61.79
2019-01-24T21:37:15.708Z,61.69
2019-01-24T21:39:42.968Z,62.98
2019-01-24T21:42:10.210Z,62.67
2019-01-24T21:44:37.461Z,62.76
2019-01-24T21:47:04.743Z,61.98
2019-01-24T21:49:32.005Z,61.29
2019-01-24T21:51:59.259Z,61.55
2019-01-24T21:54:26.500Z,61.69
2019-01-24T21:56:53.756Z,60.94
2019-01-24T21:59:21.015Z,61.42
2019-01-24T22:01:48.256Z,61.03
2019-01-24T22:04:15.510Z,60.73
2019-01-24T22:06:42.748Z,60.61
2019-01-24T22:09:10.077Z,60.54
2019-01-24T22:11:37.369Z,60.63
2019-01-24T22:14:04.797Z,60.72
2019-01-24T22:16:32.044Z,60.86
2019-01-24T22:18:59.295Z,60.72
2019-01-24T22:21:26.517Z,61.24
2019-01-24T22:23:53.781Z,60.87
2019-01-24T22:26:21.005Z,60.68
2019-01-24T22:28:48.257Z,60.49
2019-01-24T22:31:15.500Z,60.64
2019-01-24T22:33:42.787Z,61.79
2019-01-24T22:36:10.021Z,61.12
2019-01-24T22:38:37.248Z,60.66
2019-01-24T22:41:04.713Z,60.87
2019-01-24T22:43:31.956Z,61.07
2019-01-24T22:45:59.189Z,61.95
2019-01-24T22:48:26.757Z,61.68
2019-01-24T22:50:54.244Z,61.48
2019-01-24T22:53:21.498Z,61.64
2019-01-24T22:55:48.752Z,61.34
2019-01-24T22:58:16.075Z,61.01
2019-01-24T23:01:02.462Z,60.88
2019-01-24T23:03:51.577Z,60.85
2019-01-24T23:06:18.961Z,60.35
2019-01-24T23:08:46.242Z,60.36
2019-01-24T23:11:13.482Z,60.32
2019-01-24T23:13:40.709Z,62.17
2019-01-24T23:16:08.010Z,62.19
2019-01-24T23:18:35.368Z,61.63
2019-01-24T23:21:02.713Z,61.86
2019-01-24T23:23:30.064Z,62.06
2019-01-24T23:25:57.305Z,61.69
2019-01-24T23:28:24.659Z,61.56
2019-01-24T23:30:51.879Z,61.01
2019-01-24T23:33:19.133Z,62.54
2019-01-24T23:35:46.349Z,62.01
2019-01-24T23:38:13.620Z,61.77
2019-01-24T23:40:40.855Z,61.63
2019-01-24T23:43:08.180Z,61.49
2019-01-24T23:45:35.444Z,61.41
2019-01-24T23:48:02.669Z,61.49
2019-01-24T23:50:29.990Z,61.38
2019-01-24T23:52:57.270Z,61.30
2019-01-24T23:55:24.513Z,61.19
2019-01-24T23:57:51.813Z,61.09
